createdAt,value
2022-08-28T00:00:17.302Z,88.60
2022-08-28T00:02:46.663Z,89.10
2022-08-28T00:05:14.147Z,89.30
2022-08-28T00:07:44.370Z,90.10
2022-08-28T00:10:15.617Z,89.70
2022-08-28T00:12:43.676Z,90.10
2022-08-28T00:15:14.895Z,90.00
2022-08-28T00:17:42.319Z,90.20
2022-08-28T00:20:10.498Z,90.30
2022-08-28T00:22:38.469Z,90.40
2022-08-28T00:25:06.953Z,90.70
2022-08-28T00:27:52.254Z,90.90
2022-08-28T00:30:30.799Z,90.80
2022-08-28T00:33:00.446Z,91.30
2022-08-28T00:35:27.623Z,91.10
2022-08-28T00:37:57.589Z,91.20
2022-08-28T00:40:28.759Z,91.20
2022-08-28T00:43:00.942Z,91.50
2022-08-28T00:45:28.204Z,91.20
2022-08-28T00:47:55.328Z,91.40
2022-08-28T00:50:24.816Z,91.40
2022-08-28T00:53:00.623Z,91.70
2022-08-28T00:55:28.039Z,92.30
2022-08-28T00:57:59.183Z,91.90
2022-08-28T01:00:34.239Z,91.80
2022-08-28T01:03:01.684Z,91.70
2022-08-28T01:05:28.971Z,91.70
2022-08-28T01:07:58.759Z,91.80
2022-08-28T01:10:27.706Z,91.90
2022-08-28T01:12:57.001Z,92.20
2022-08-28T01:15:27.563Z,92.00
2022-08-28T01:17:57.009Z,91.70
2022-08-28T01:20:26.082Z,91.60
2022-08-28T01:23:17.584Z,92.00
2022-08-28T01:25:44.747Z,91.70
2022-08-28T01:28:13.144Z,91.90
2022-08-28T01:30:45.399Z,92.30
2022-08-28T01:33:14.499Z,92.60
2022-08-28T01:35:43.048Z,92.30
2022-08-28T01:38:10.031Z,92.20
2022-08-28T01:40:41.754Z,92.20
2022-08-28T01:43:12.997Z,91.80
2022-08-28T01:45:45.991Z,91.60
2022-08-28T01:48:13.675Z,92.00
2022-08-28T01:50:40.838Z,92.10
2022-08-28T01:53:12.317Z,91.20
2022-08-28T01:55:39.570Z,90.90
2022-08-28T01:58:07.424Z,91.20
2022-08-28T02:00:34.699Z,91.80
2022-08-28T02:03:02.018Z,92.20
2022-08-28T02:05:31.106Z,91.90
2022-08-28T02:07:58.664Z,91.90
2022-08-28T02:10:26.579Z,92.10
2022-08-28T02:12:55.451Z,92.40
2022-08-28T02:15:26.996Z,92.30
2022-08-28T02:17:54.187Z,92.00
2022-08-28T02:20:21.300Z,92.70
2022-08-28T02:22:48.428Z,93.00
2022-08-28T02:25:16.885Z,92.10
2022-08-28T02:27:44.361Z,91.90
2022-08-28T02:30:12.401Z,92.60
2022-08-28T02:32:39.551Z,92.40
2022-08-28T02:35:10.098Z,92.30
2022-08-28T02:37:39.783Z,91.80
2022-08-28T02:40:07.446Z,91.50
2022-08-28T02:42:34.475Z,91.60
2022-08-28T02:45:01.420Z,91.40
2022-08-28T02:47:28.371Z,92.10
2022-08-28T02:49:55.302Z,92.20
2022-08-28T02:52:23.694Z,92.30
2022-08-28T02:54:50.803Z,92.00
2022-08-28T02:57:17.785Z,92.60
2022-08-28T02:59:45.572Z,91.90
2022-08-28T03:02:12.664Z,92.30
2022-08-28T03:04:39.686Z,92.80
2022-08-28T03:07:11.802Z,92.50
2022-08-28T03:09:40.208Z,92.50
2022-08-28T03:12:07.722Z,92.70
2022-08-28T03:14:34.799Z,92.60
2022-08-28T03:17:01.869Z,91.90
2022-08-28T03:19:28.928Z,92.20
2022-08-28T03:21:56.449Z,92.80
2022-08-28T03:24:23.638Z,92.70
2022-08-28T03:26:50.532Z,92.90
2022-08-28T03:29:17.470Z,92.20
2022-08-28T03:31:44.660Z,91.80
2022-08-28T03:34:11.708Z,91.40
2022-08-28T03:36:38.960Z,91.70
2022-08-28T03:39:06.346Z,92.20
2022-08-28T03:41:34.785Z,92.90
2022-08-28T03:44:01.844Z,92.40
2022-08-28T03:46:30.044Z,92.70
2022-08-28T03:48:57.016Z,93.30
2022-08-28T03:51:29.694Z,93.50
2022-08-28T03:53:58.396Z,93.00
2022-08-28T03:56:26.126Z,93.00
2022-08-28T03:58:54.931Z,93.30
2022-08-28T04:01:22.561Z,93.60
2022-08-28T04:03:49.560Z,93.80
2022-08-28T04:06:16.751Z,94.00
2022-08-28T04:08:43.721Z,94.10
2022-08-28T04:11:10.837Z,93.90
2022-08-28T04:13:37.806Z,94.10
2022-08-28T04:16:10.954Z,94.20
2022-08-28T04:18:39.576Z,94.30
2022-08-28T04:21:11.700Z,94.00
2022-08-28T04:23:39.281Z,94.10
2022-08-28T04:26:07.363Z,94.10
2022-08-28T04:28:34.611Z,94.00
2022-08-28T04:31:01.648Z,94.30
2022-08-28T04:33:28.989Z,94.40
2022-08-28T04:35:56.217Z,94.10
2022-08-28T04:38:23.157Z,93.90
2022-08-28T04:40:50.147Z,93.90
2022-08-28T04:43:17.083Z,93.90
2022-08-28T04:45:45.092Z,93.90
2022-08-28T04:48:15.623Z,93.50
2022-08-28T04:50:47.140Z,93.50
2022-08-28T04:53:18.618Z,93.50
2022-08-28T04:55:53.634Z,93.50
2022-08-28T04:58:23.732Z,93.30
2022-08-28T05:00:51.729Z,92.70
2022-08-28T05:03:18.737Z,92.90
2022-08-28T05:05:47.608Z,93.30
2022-08-28T05:08:15.210Z,93.10
2022-08-28T05:10:42.352Z,92.80
2022-08-28T05:13:10.803Z,92.40
2022-08-28T05:15:41.988Z,92.30
2022-08-28T05:18:09.109Z,92.80
2022-08-28T05:20:37.689Z,92.90
2022-08-28T05:23:05.271Z,93.10
2022-08-28T05:25:35.650Z,93.00
2022-08-28T05:28:03.061Z,93.20
2022-08-28T05:30:30.081Z,93.30
2022-08-28T05:32:57.113Z,93.20
2022-08-28T05:35:24.950Z,93.10
2022-08-28T05:37:52.726Z,93.50
2022-08-28T05:40:23.511Z,93.70
2022-08-28T05:42:51.193Z,92.70
2022-08-28T05:45:18.304Z,92.70
2022-08-28T05:47:45.605Z,92.60
2022-08-28T05:50:15.169Z,92.80
2022-08-28T05:52:42.714Z,91.80
2022-08-28T05:55:10.591Z,92.30
2022-08-28T05:57:37.905Z,92.40
2022-08-28T06:00:05.913Z,92.40
2022-08-28T06:02:34.778Z,92.10
2022-08-28T06:05:02.115Z,91.90
2022-08-28T06:07:29.168Z,92.10
2022-08-28T06:09:56.273Z,91.20
2022-08-28T06:12:23.637Z,90.60
2022-08-28T06:14:50.546Z,90.20
2022-08-28T06:17:17.891Z,90.30
2022-08-28T06:19:50.525Z,90.70
2022-08-28T06:22:18.497Z,90.80
2022-08-28T06:24:45.622Z,90.10
2022-08-28T06:27:12.978Z,89.90
2022-08-28T06:29:40.003Z,89.70
2022-08-28T06:32:07.077Z,89.80
2022-08-28T06:34:34.180Z,89.10
2022-08-28T06:37:01.188Z,88.20
2022-08-28T06:39:28.397Z,87.00
2022-08-28T06:41:55.464Z,86.30
2022-08-28T06:44:22.593Z,83.30
2022-08-28T06:46:51.111Z,84.10
2022-08-28T06:49:18.341Z,81.60
2022-08-28T06:51:45.351Z,80.10
2022-08-28T06:54:12.410Z,78.90
2022-08-28T06:56:39.444Z,78.20
2022-08-28T06:59:06.460Z,75.90
2022-08-28T07:01:35.195Z,75.40
2022-08-28T07:04:08.106Z,75.20
2022-08-28T07:06:38.899Z,75.40
2022-08-28T07:09:07.678Z,73.20
2022-08-28T07:11:35.309Z,73.10
2022-08-28T07:14:02.989Z,73.70
2022-08-28T07:16:35.513Z,73.10
2022-08-28T07:19:04.959Z,70.80
2022-08-28T07:21:38.233Z,70.70
2022-08-28T07:24:06.965Z,68.60
2022-08-28T07:26:34.249Z,70.00
2022-08-28T07:29:10.329Z,70.40
2022-08-28T07:31:42.738Z,71.00
2022-08-28T07:34:11.021Z,72.10
2022-08-28T07:36:38.334Z,70.70
2022-08-28T07:39:05.594Z,70.60
2022-08-28T07:41:33.918Z,70.60
2022-08-28T07:44:19.239Z,70.40
2022-08-28T07:46:46.225Z,71.50
2022-08-28T07:49:15.556Z,69.60
2022-08-28T07:51:42.536Z,70.90
2022-08-28T07:54:14.724Z,71.70
2022-08-28T07:56:45.548Z,70.80
2022-08-28T07:59:16.776Z,68.30
2022-08-28T08:01:46.582Z,70.00
2022-08-28T08:04:14.467Z,67.70
2022-08-28T08:06:42.062Z,66.80
2022-08-28T08:09:10.230Z,65.20
2022-08-28T08:11:37.146Z,64.40
2022-08-28T08:14:05.768Z,63.80
2022-08-28T08:16:38.913Z,60.50
2022-08-28T08:19:06.348Z,60.80
2022-08-28T08:21:33.362Z,60.60
2022-08-28T08:24:00.344Z,58.50
2022-08-28T08:26:30.843Z,59.20
2022-08-28T08:28:58.242Z,58.80
2022-08-28T08:31:27.348Z,60.00
2022-08-28T08:33:57.082Z,57.90
2022-08-28T08:36:25.112Z,58.30
2022-08-28T08:38:59.132Z,59.90
2022-08-28T08:41:30.447Z,59.20
2022-08-28T08:44:33.249Z,56.90
2022-08-28T08:47:14.126Z,55.50
2022-08-28T08:49:55.317Z,55.60
2022-08-28T08:52:34.397Z,55.40
2022-08-28T08:55:27.837Z,55.30
2022-08-28T08:58:25.351Z,55.50
2022-08-28T09:00:58.545Z,55.40
2022-08-28T09:04:03.100Z,56.80
2022-08-28T09:06:40.479Z,55.30
2022-08-28T09:09:26.449Z,55.50
2022-08-28T09:12:07.631Z,55.40
2022-08-28T09:14:41.066Z,55.10
2022-08-28T09:17:08.205Z,56.50
2022-08-28T09:19:35.512Z,57.50
2022-08-28T09:22:02.570Z,56.70
2022-08-28T09:24:35.590Z,55.10
2022-08-28T09:27:05.482Z,55.10
2022-08-28T09:29:37.345Z,54.00
2022-08-28T09:32:25.305Z,53.50
2022-08-28T09:35:24.507Z,51.90
2022-08-28T09:37:51.639Z,52.10
2022-08-28T09:40:50.935Z,54.70
2022-08-28T09:43:27.721Z,54.80
2022-08-28T09:46:05.030Z,56.30
2022-08-28T09:48:37.097Z,56.20
2022-08-28T09:51:12.027Z,55.30
2022-08-28T09:53:51.828Z,55.20
2022-08-28T09:56:24.995Z,56.30
2022-08-28T09:58:54.805Z,56.90
2022-08-28T10:01:44.692Z,56.40
2022-08-28T10:04:47.030Z,54.90
2022-08-28T10:07:16.978Z,54.20
2022-08-28T10:09:49.865Z,54.40
2022-08-28T10:12:43.344Z,54.70
2022-08-28T10:15:38.060Z,54.70
2022-08-28T10:18:18.025Z,52.90
2022-08-28T10:21:03.134Z,52.80
2022-08-28T10:23:54.989Z,52.00
2022-08-28T10:26:30.993Z,50.40
2022-08-28T10:29:23.005Z,51.20
2022-08-28T10:31:52.914Z,51.30
2022-08-28T10:34:38.336Z,49.90
2022-08-28T10:37:14.286Z,49.60
2022-08-28T10:39:57.508Z,50.00
2022-08-28T10:42:35.879Z,50.00
2022-08-28T10:45:05.429Z,50.30
2022-08-28T10:47:34.059Z,50.20
2022-08-28T10:50:05.252Z,49.70
2022-08-28T10:52:41.821Z,47.60
2022-08-28T10:55:19.651Z,48.40
2022-08-28T10:57:53.467Z,47.10
2022-08-28T11:00:23.115Z,46.50
2022-08-28T11:03:01.445Z,48.00
2022-08-28T11:05:53.803Z,49.00
2022-08-28T11:08:26.962Z,50.10
2022-08-28T11:10:54.671Z,47.90
2022-08-28T11:13:52.925Z,47.10
2022-08-28T11:16:21.179Z,47.60
2022-08-28T11:19:03.135Z,47.90
2022-08-28T11:21:42.628Z,48.70
2022-08-28T11:24:25.715Z,49.30
2022-08-28T11:27:25.679Z,49.90
2022-08-28T11:30:01.809Z,48.40
2022-08-28T11:32:34.898Z,47.50
2022-08-28T11:35:12.245Z,45.80
2022-08-28T11:37:47.142Z,45.40
2022-08-28T11:40:19.432Z,46.80
2022-08-28T11:42:49.662Z,48.40
2022-08-28T11:45:43.071Z,47.80
2022-08-28T11:48:23.149Z,48.00
2022-08-28T11:51:06.993Z,46.60
2022-08-28T11:53:51.691Z,47.10
2022-08-28T11:56:40.451Z,46.10
2022-08-28T11:59:45.030Z,45.30
2022-08-28T12:02:40.118Z,45.90
2022-08-28T12:05:13.262Z,45.60
2022-08-28T12:07:41.669Z,46.70
2022-08-28T12:10:20.865Z,46.20
2022-08-28T12:12:48.014Z,45.00
2022-08-28T12:15:31.188Z,45.00
2022-08-28T12:18:13.405Z,42.80
2022-08-28T12:21:03.408Z,43.50
2022-08-28T12:23:30.363Z,43.50
2022-08-28T12:26:09.962Z,45.30
2022-08-28T12:28:39.991Z,44.80
2022-08-28T12:31:46.359Z,44.70
2022-08-28T12:34:33.582Z,44.30
2022-08-28T12:37:01.930Z,44.70
2022-08-28T12:39:30.032Z,44.70
2022-08-28T12:41:57.829Z,44.60
2022-08-28T12:44:30.190Z,44.70
2022-08-28T12:46:57.244Z,44.70
2022-08-28T12:49:34.527Z,44.70
2022-08-28T12:52:11.278Z,44.80
2022-08-28T12:54:44.659Z,43.40
2022-08-28T12:57:13.217Z,42.90
2022-08-28T12:59:41.252Z,42.50
2022-08-28T13:02:27.460Z,43.30
2022-08-28T13:05:08.968Z,42.90
2022-08-28T13:07:40.265Z,42.20
2022-08-28T13:10:25.055Z,43.30
2022-08-28T13:13:22.500Z,44.10
2022-08-28T13:15:52.699Z,44.50
2022-08-28T13:18:41.483Z,42.90
2022-08-28T13:21:12.270Z,43.20
2022-08-28T13:23:39.631Z,44.60
2022-08-28T13:26:06.817Z,44.80
2022-08-28T13:28:41.760Z,44.70
2022-08-28T13:31:33.592Z,45.40
2022-08-28T13:34:04.519Z,45.10
2022-08-28T13:36:42.729Z,44.40
2022-08-28T13:39:09.846Z,42.70
2022-08-28T13:41:36.957Z,43.10
2022-08-28T13:44:04.643Z,43.50
2022-08-28T13:46:31.655Z,42.80
2022-08-28T13:48:58.689Z,42.30
2022-08-28T13:51:25.617Z,43.50
2022-08-28T13:53:54.636Z,44.60
2022-08-28T13:56:23.366Z,45.00
2022-08-28T13:58:56.794Z,45.00
2022-08-28T14:01:45.985Z,45.80
2022-08-28T14:04:13.385Z,45.00
2022-08-28T14:06:44.135Z,45.20
2022-08-28T14:09:17.514Z,45.90
2022-08-28T14:11:45.945Z,45.80
2022-08-28T14:14:12.869Z,46.50
2022-08-28T14:16:40.103Z,47.00
2022-08-28T14:19:07.304Z,47.60
2022-08-28T14:21:37.752Z,47.40
2022-08-28T14:24:04.850Z,47.30
2022-08-28T14:26:32.086Z,47.60
2022-08-28T14:29:02.714Z,47.90
2022-08-28T14:31:29.939Z,47.10
2022-08-28T14:33:57.225Z,48.00
2022-08-28T14:36:29.088Z,46.90
2022-08-28T14:38:56.779Z,46.50
2022-08-28T14:41:24.365Z,47.20
2022-08-28T14:43:51.345Z,47.70
2022-08-28T14:46:28.514Z,47.50
2022-08-28T14:48:58.808Z,47.80
2022-08-28T14:51:25.959Z,47.90
2022-08-28T14:53:53.073Z,48.20
2022-08-28T14:56:21.142Z,48.40
2022-08-28T14:58:48.343Z,48.00
2022-08-28T15:01:36.265Z,48.00
2022-08-28T15:04:14.189Z,47.50
2022-08-28T15:06:42.561Z,47.80
2022-08-28T15:09:11.020Z,47.30
2022-08-28T15:11:37.955Z,46.80
2022-08-28T15:14:04.918Z,45.50
2022-08-28T15:16:33.924Z,45.60
2022-08-28T15:19:01.101Z,46.60
2022-08-28T15:21:32.857Z,46.90
2022-08-28T15:24:01.003Z,46.30
2022-08-28T15:26:28.263Z,46.80
2022-08-28T15:28:58.236Z,47.50
2022-08-28T15:31:25.458Z,46.50
2022-08-28T15:33:52.490Z,46.80
2022-08-28T15:36:19.998Z,46.70
2022-08-28T15:39:07.234Z,47.10
2022-08-28T15:41:36.050Z,46.90
2022-08-28T15:44:03.263Z,47.80
2022-08-28T15:46:33.594Z,47.50
2022-08-28T15:49:01.909Z,46.40
2022-08-28T15:51:30.386Z,45.20
2022-08-28T15:53:57.699Z,47.00
2022-08-28T15:56:24.762Z,48.10
2022-08-28T15:58:52.089Z,47.80
2022-08-28T16:01:20.378Z,46.10
2022-08-28T16:03:47.328Z,47.20
2022-08-28T16:06:18.165Z,46.30
2022-08-28T16:08:45.285Z,46.50
2022-08-28T16:11:19.434Z,46.60
2022-08-28T16:13:46.660Z,46.10
2022-08-28T16:16:13.793Z,46.40
2022-08-28T16:18:41.180Z,47.00
2022-08-28T16:21:08.292Z,47.30
2022-08-28T16:23:35.548Z,47.80
2022-08-28T16:26:02.597Z,48.60
2022-08-28T16:28:29.618Z,48.10
2022-08-28T16:30:56.740Z,48.00
2022-08-28T16:33:23.848Z,48.00
2022-08-28T16:35:55.462Z,48.40
2022-08-28T16:38:23.822Z,48.70
2022-08-28T16:40:50.802Z,48.10
2022-08-28T16:43:17.738Z,48.00
2022-08-28T16:45:45.316Z,48.70
2022-08-28T16:48:12.789Z,48.60
2022-08-28T16:50:41.081Z,49.10
2022-08-28T16:53:08.192Z,49.00
2022-08-28T16:55:35.575Z,48.50
2022-08-28T16:58:02.874Z,48.40
2022-08-28T17:00:29.949Z,49.00
2022-08-28T17:02:56.988Z,49.40
2022-08-28T17:05:24.922Z,49.70
2022-08-28T17:07:52.117Z,49.90
2022-08-28T17:10:20.865Z,49.60
2022-08-28T17:12:47.835Z,49.80
2022-08-28T17:15:14.930Z,50.40
2022-08-28T17:17:42.053Z,50.40
2022-08-28T17:20:29.468Z,50.30
2022-08-28T17:22:56.426Z,51.70
2022-08-28T17:25:23.736Z,52.70
2022-08-28T17:27:50.793Z,53.20
2022-08-28T17:30:19.375Z,54.20
2022-08-28T17:32:46.580Z,54.20
2022-08-28T17:35:13.829Z,55.70
2022-08-28T17:37:40.837Z,55.50
2022-08-28T17:40:12.910Z,56.20
2022-08-28T17:42:39.979Z,55.70
2022-08-28T17:45:08.432Z,55.30
2022-08-28T17:47:35.403Z,55.80
2022-08-28T17:50:02.760Z,56.30
2022-08-28T17:52:29.832Z,57.10
2022-08-28T17:54:56.928Z,57.60
2022-08-28T17:57:24.369Z,57.70
2022-08-28T17:59:51.484Z,57.80
2022-08-28T18:02:19.264Z,58.60
2022-08-28T18:04:46.331Z,58.70
2022-08-28T18:07:13.311Z,58.80
2022-08-28T18:09:40.444Z,58.90
2022-08-28T18:12:12.662Z,59.20
2022-08-28T18:14:40.397Z,59.10
2022-08-28T18:17:07.433Z,58.90
2022-08-28T18:19:36.891Z,59.20
2022-08-28T18:22:04.000Z,59.50
2022-08-28T18:24:32.017Z,59.90
2022-08-28T18:26:59.127Z,60.00
2022-08-28T18:29:27.083Z,60.50
2022-08-28T18:31:54.024Z,61.20
2022-08-28T18:34:21.015Z,61.20
2022-08-28T18:36:48.967Z,62.00
2022-08-28T18:39:15.934Z,61.90
2022-08-28T18:41:56.310Z,62.40
2022-08-28T18:44:24.396Z,62.50
2022-08-28T18:46:51.501Z,63.00
2022-08-28T18:49:18.574Z,63.20
2022-08-28T18:51:45.534Z,63.70
2022-08-28T18:54:13.590Z,64.80
2022-08-28T18:56:43.837Z,64.80
2022-08-28T18:59:11.116Z,65.80
2022-08-28T19:01:38.406Z,66.00
2022-08-28T19:04:06.134Z,66.90
2022-08-28T19:06:33.428Z,67.20
2022-08-28T19:09:00.658Z,67.60
2022-08-28T19:11:30.321Z,67.20
2022-08-28T19:13:57.998Z,67.50
2022-08-28T19:16:24.990Z,68.30
2022-08-28T19:18:54.775Z,68.20
2022-08-28T19:21:22.054Z,68.70
2022-08-28T19:23:55.838Z,68.40
2022-08-28T19:26:24.847Z,69.30
2022-08-28T19:28:52.082Z,69.50
2022-08-28T19:31:19.149Z,69.20
2022-08-28T19:33:46.784Z,69.40
2022-08-28T19:36:14.185Z,69.70
2022-08-28T19:38:41.400Z,70.40
2022-08-28T19:41:08.893Z,70.10
2022-08-28T19:43:43.431Z,70.10
2022-08-28T19:46:12.931Z,70.30
2022-08-28T19:48:50.648Z,70.40
2022-08-28T19:51:23.305Z,70.50
2022-08-28T19:53:57.849Z,70.70
2022-08-28T19:56:30.430Z,70.50
2022-08-28T19:58:59.228Z,71.00
2022-08-28T20:01:31.395Z,70.40
2022-08-28T20:03:59.103Z,70.90
2022-08-28T20:06:26.751Z,70.90
2022-08-28T20:08:53.671Z,70.60
2022-08-28T20:11:24.832Z,70.50
2022-08-28T20:13:53.130Z,71.00
2022-08-28T20:16:20.213Z,71.40
2022-08-28T20:18:47.202Z,70.90
2022-08-28T20:21:14.423Z,71.50
2022-08-28T20:23:41.378Z,71.50
2022-08-28T20:26:09.476Z,71.70
2022-08-28T20:28:36.737Z,71.70
2022-08-28T20:31:12.069Z,72.00
2022-08-28T20:33:39.073Z,72.40
2022-08-28T20:36:07.361Z,72.20
2022-08-28T20:38:42.245Z,72.50
2022-08-28T20:41:17.076Z,72.50
2022-08-28T20:43:44.368Z,72.80
2022-08-28T20:46:12.078Z,72.60
2022-08-28T20:48:39.237Z,72.30
2022-08-28T20:51:06.311Z,72.70
2022-08-28T20:53:37.731Z,72.00
2022-08-28T20:56:06.439Z,72.90
2022-08-28T20:58:33.720Z,73.30
2022-08-28T21:01:00.728Z,72.70
2022-08-28T21:03:27.773Z,72.30
2022-08-28T21:05:55.573Z,72.50
2022-08-28T21:08:22.796Z,72.70
2022-08-28T21:10:51.690Z,73.00
2022-08-28T21:13:18.684Z,72.60
2022-08-28T21:15:45.780Z,72.90
2022-08-28T21:18:13.228Z,73.20
2022-08-28T21:20:40.813Z,72.80
2022-08-28T21:23:07.784Z,73.20
2022-08-28T21:25:34.814Z,73.20
2022-08-28T21:28:04.055Z,73.20
2022-08-28T21:30:31.890Z,73.20
2022-08-28T21:32:58.876Z,73.20
2022-08-28T21:35:25.873Z,73.20
2022-08-28T21:37:52.760Z,73.10
2022-08-28T21:40:19.828Z,73.20
2022-08-28T21:42:46.808Z,73.50
2022-08-28T21:45:13.799Z,73.10
2022-08-28T21:47:42.009Z,73.60
2022-08-28T21:50:09.148Z,74.00
2022-08-28T21:52:36.134Z,74.00
2022-08-28T21:55:07.254Z,73.20
2022-08-28T21:57:34.585Z,73.90
2022-08-28T22:00:01.531Z,73.90
2022-08-28T22:02:28.893Z,73.40
2022-08-28T22:04:56.037Z,73.20
2022-08-28T22:07:22.997Z,73.80
2022-08-28T22:09:50.801Z,74.30
2022-08-28T22:12:17.929Z,73.80
2022-08-28T22:14:45.070Z,73.80
2022-08-28T22:17:12.287Z,73.60
2022-08-28T22:19:39.712Z,73.70
2022-08-28T22:22:25.377Z,73.80
2022-08-28T22:24:53.121Z,73.50
2022-08-28T22:27:20.116Z,74.00
2022-08-28T22:29:47.154Z,74.40
2022-08-28T22:32:14.108Z,74.60
2022-08-28T22:34:42.433Z,74.40
2022-08-28T22:37:11.582Z,74.90
2022-08-28T22:39:39.523Z,74.30
2022-08-28T22:42:06.899Z,74.20
2022-08-28T22:44:33.925Z,74.40
2022-08-28T22:47:00.833Z,74.90
2022-08-28T22:49:27.897Z,75.10
2022-08-28T22:51:54.908Z,75.50
2022-08-28T22:54:22.118Z,75.10
2022-08-28T22:56:49.067Z,75.30
2022-08-28T22:59:16.063Z,75.20
2022-08-28T23:01:43.159Z,75.50
2022-08-28T23:04:10.752Z,75.80
2022-08-28T23:06:41.005Z,75.90
2022-08-28T23:09:08.366Z,75.80
2022-08-28T23:11:35.869Z,75.90
2022-08-28T23:14:03.804Z,76.90
2022-08-28T23:16:31.299Z,77.20
2022-08-28T23:19:13.820Z,77.00
2022-08-28T23:21:43.854Z,77.60
2022-08-28T23:24:14.185Z,76.60
2022-08-28T23:26:41.404Z,77.10
2022-08-28T23:29:09.166Z,76.50
2022-08-28T23:31:36.568Z,77.00
2022-08-28T23:34:04.928Z,76.80
2022-08-28T23:36:32.366Z,76.70
2022-08-28T23:39:02.423Z,76.70
2022-08-28T23:41:29.460Z,77.00
2022-08-28T23:43:57.608Z,77.60
2022-08-28T23:46:24.987Z,78.30
2022-08-28T23:48:52.653Z,78.30
2022-08-28T23:51:22.030Z,78.60
2022-08-28T23:53:49.128Z,79.10
2022-08-28T23:56:16.938Z,79.30
2022-08-28T23:58:44.466Z,79.50
